Terminal Aerodrome Forecast
Issued by NWS

Home | Current Version | Previous Version | Text Only | Print | Product List | Glossary On
Versions: 1 2 3 4 5 6 7 8 9 10 11 12 13 14 15 16 17 18
283
FTUS43 KICT 252320
TAFRSL
TAF
KRSL 252320Z 2600/2624 02008KT P6SM SCT045
     FM260200 07005KT P6SM FEW250
     FM260500 17004KT P6SM FEW250
     FM261400 25008KT P6SM SCT250
     FM261700 32013KT P6SM SCT250
     FM261900 34018G29KT P6SM BKN090=

USA.gov is the U.S. government's official web portal to all federal, state and local government web resources and services.